createdAt,value
2018-01-12T00:01:30.859Z,38.40
2018-01-12T00:03:58.311Z,26.30
2018-01-12T00:06:25.786Z,27.53
2018-01-12T00:08:53.281Z,33.63
2018-01-12T00:11:20.762Z,28.50
2018-01-12T00:13:48.214Z,30.93
2018-01-12T00:16:15.764Z,27.00
2018-01-12T00:18:43.234Z,28.60
2018-01-12T00:21:10.712Z,25.00
2018-01-12T00:23:38.154Z,23.50
2018-01-12T00:26:05.619Z,32.53
2018-01-12T00:28:33.085Z,37.13
2018-01-12T00:31:00.543Z,31.00
2018-01-12T00:33:28.026Z,30.63
2018-01-12T00:35:55.491Z,31.17
2018-01-12T00:38:22.950Z,29.57
2018-01-12T00:40:50.400Z,27.40
2018-01-12T00:43:17.886Z,30.13
2018-01-12T00:45:45.365Z,32.60
2018-01-12T00:48:12.832Z,28.60
2018-01-12T00:50:40.315Z,29.37
2018-01-12T00:53:07.772Z,24.03
2018-01-12T00:55:35.250Z,28.20
2018-01-12T00:58:02.696Z,21.07
2018-01-12T01:00:30.182Z,28.63
2018-01-12T01:02:57.644Z,29.70
2018-01-12T01:05:25.107Z,22.03
2018-01-12T01:07:52.555Z,18.00
2018-01-12T01:10:20.023Z,24.83
2018-01-12T01:12:47.486Z,25.33
2018-01-12T01:15:14.942Z,24.63
2018-01-12T01:17:42.419Z,26.30
2018-01-12T01:20:09.871Z,22.27
2018-01-12T01:22:37.335Z,33.87
2018-01-12T01:25:04.811Z,24.70
2018-01-12T01:27:32.282Z,28.03
2018-01-12T01:29:59.777Z,31.57
2018-01-12T01:32:27.239Z,30.83
2018-01-12T01:34:54.688Z,29.07
2018-01-12T01:37:22.212Z,26.60
2018-01-12T01:39:49.679Z,26.50
2018-01-12T01:42:17.128Z,27.80
2018-01-12T01:44:44.616Z,17.27
2018-01-12T01:47:12.064Z,26.37
2018-01-12T01:49:39.572Z,23.63
2018-01-12T01:52:07.044Z,24.07
2018-01-12T01:54:34.501Z,27.73
2018-01-12T01:57:01.983Z,30.13
2018-01-12T01:59:29.434Z,26.37
2018-01-12T02:01:56.907Z,23.00
2018-01-12T02:04:24.362Z,32.10
2018-01-12T02:06:51.818Z,27.90
2018-01-12T02:09:19.306Z,24.57
2018-01-12T02:11:46.755Z,22.93
2018-01-12T02:14:14.219Z,23.50
2018-01-12T02:16:41.669Z,30.67
2018-01-12T02:19:09.136Z,21.43
2018-01-12T02:21:36.591Z,25.20
2018-01-12T02:24:04.063Z,31.30
2018-01-12T02:26:31.603Z,19.53
2018-01-12T02:28:59.067Z,26.93
2018-01-12T02:31:26.529Z,31.60
2018-01-12T02:33:53.988Z,39.33
2018-01-12T02:36:21.460Z,37.07
2018-01-12T02:38:48.908Z,31.80
2018-01-12T02:41:16.379Z,33.93
2018-01-12T02:43:43.845Z,44.00
2018-01-12T02:46:11.314Z,40.73
2018-01-12T02:48:39.430Z,38.40
2018-01-12T02:51:06.909Z,43.43
2018-01-12T02:53:34.375Z,34.03
2018-01-12T02:56:01.899Z,40.90
2018-01-12T02:58:29.328Z,42.23
2018-01-12T03:00:56.810Z,43.33
2018-01-12T03:03:24.291Z,44.60
2018-01-12T03:05:51.766Z,40.30
2018-01-12T03:08:19.254Z,42.47
2018-01-12T03:10:46.715Z,37.60
2018-01-12T03:13:14.167Z,44.50
2018-01-12T03:15:41.627Z,36.43
2018-01-12T03:18:09.116Z,36.67
2018-01-12T03:20:36.572Z,49.40
2018-01-12T03:23:04.037Z,44.33
2018-01-12T03:25:31.487Z,45.83
2018-01-12T03:27:58.951Z,39.17
2018-01-12T03:30:26.400Z,34.33
2018-01-12T03:32:53.867Z,33.37
2018-01-12T03:35:21.334Z,45.77
2018-01-12T03:37:48.783Z,43.53
2018-01-12T03:40:16.250Z,45.70
2018-01-12T03:42:43.729Z,51.97
2018-01-12T03:45:12.086Z,51.90
2018-01-12T03:47:39.530Z,50.53
2018-01-12T03:50:06.998Z,44.63
2018-01-12T03:52:34.455Z,40.57
2018-01-12T03:55:01.940Z,48.13
2018-01-12T03:57:29.399Z,47.07
2018-01-12T03:59:56.867Z,50.13
2018-01-12T04:02:24.315Z,47.50
2018-01-12T04:04:51.779Z,43.00
2018-01-12T04:07:19.231Z,50.27
2018-01-12T04:09:46.699Z,45.13
2018-01-12T04:12:14.175Z,45.30
2018-01-12T04:14:41.632Z,50.30
2018-01-12T04:17:09.107Z,46.13
2018-01-12T04:19:36.583Z,52.47
2018-01-12T04:22:04.055Z,45.00
2018-01-12T04:24:31.522Z,44.13
2018-01-12T04:26:59.011Z,52.00
2018-01-12T04:29:26.464Z,43.47
2018-01-12T04:31:53.939Z,45.77
2018-01-12T04:34:21.402Z,48.50
2018-01-12T04:36:48.879Z,44.43
2018-01-12T04:39:16.328Z,51.93
2018-01-12T04:41:43.799Z,46.50
2018-01-12T04:44:11.267Z,37.97
2018-01-12T04:46:38.746Z,38.00
2018-01-12T04:49:06.207Z,42.70
2018-01-12T04:51:33.672Z,45.73
2018-01-12T04:54:01.118Z,43.60
2018-01-12T04:56:28.593Z,43.70
2018-01-12T04:58:56.052Z,42.90
2018-01-12T05:01:23.521Z,49.30
2018-01-12T05:03:50.977Z,43.13
2018-01-12T05:06:18.460Z,48.00
2018-01-12T05:08:45.948Z,57.63
2018-01-12T05:11:13.408Z,50.60
2018-01-12T05:13:40.893Z,41.13
2018-01-12T05:16:08.384Z,66.37
2018-01-12T05:18:35.860Z,46.17
2018-01-12T05:21:03.320Z,46.50
2018-01-12T05:23:30.796Z,54.63
2018-01-12T05:25:58.272Z,44.33
2018-01-12T05:28:25.726Z,42.93
2018-01-12T05:30:53.251Z,52.17
2018-01-12T05:33:20.727Z,51.27
2018-01-12T05:35:48.224Z,46.03
2018-01-12T05:38:15.700Z,50.33
2018-01-12T05:40:43.156Z,47.40
2018-01-12T05:43:10.631Z,38.33
2018-01-12T05:45:38.088Z,44.67
2018-01-12T05:48:05.571Z,45.60
2018-01-12T05:50:33.123Z,46.63
2018-01-12T05:53:00.603Z,45.90
2018-01-12T05:55:28.055Z,56.90
2018-01-12T05:57:55.518Z,45.40
2018-01-12T06:00:22.968Z,49.10
2018-01-12T06:03:02.326Z,44.63
2018-01-12T06:05:41.695Z,51.17
2018-01-12T06:08:09.168Z,46.77
2018-01-12T06:10:36.619Z,51.83
2018-01-12T06:13:04.092Z,49.43
2018-01-12T06:15:31.574Z,48.73
2018-01-12T06:17:59.066Z,35.40
2018-01-12T06:20:26.530Z,40.40
2018-01-12T06:22:53.983Z,50.13
2018-01-12T06:25:21.464Z,50.60
2018-01-12T06:27:48.916Z,58.03
2018-01-12T06:30:16.396Z,36.83
2018-01-12T06:32:43.852Z,41.90
2018-01-12T06:35:11.319Z,41.40
2018-01-12T06:37:38.797Z,46.43
2018-01-12T06:40:06.266Z,53.80
2018-01-12T06:42:33.714Z,54.40
2018-01-12T06:45:01.192Z,44.13
2018-01-12T06:47:28.655Z,49.43
2018-01-12T06:49:56.130Z,46.67
2018-01-12T06:52:23.622Z,34.83
2018-01-12T06:54:51.110Z,38.53
2018-01-12T06:57:18.572Z,33.60
2018-01-12T06:59:46.058Z,38.83
2018-01-12T07:02:13.513Z,46.90
2018-01-12T07:04:40.987Z,36.00
2018-01-12T07:07:08.455Z,38.60
2018-01-12T07:09:36.022Z,38.20
2018-01-12T07:12:03.491Z,36.23
2018-01-12T07:14:30.963Z,40.63
2018-01-12T07:16:58.440Z,39.73
2018-01-12T07:19:25.899Z,33.03
2018-01-12T07:22:05.255Z,32.43
2018-01-12T07:24:32.706Z,33.07
2018-01-12T07:27:00.171Z,33.73
2018-01-12T07:29:27.654Z,31.77
2018-01-12T07:31:55.131Z,34.10
2018-01-12T07:34:22.584Z,37.53
2018-01-12T07:36:50.051Z,28.53
2018-01-12T07:39:17.524Z,42.67
2018-01-12T07:41:44.998Z,45.00
2018-01-12T07:44:12.465Z,37.50
2018-01-12T07:46:39.923Z,29.97
2018-01-12T07:49:07.395Z,35.20
2018-01-12T07:51:34.851Z,39.33
2018-01-12T07:54:02.318Z,33.90
2018-01-12T07:56:29.763Z,30.83
2018-01-12T07:58:57.227Z,33.60
2018-01-12T08:01:30.319Z,34.63
2018-01-12T08:03:57.782Z,29.70
2018-01-12T08:06:25.250Z,26.13
2018-01-12T08:08:52.747Z,30.63
2018-01-12T08:11:20.199Z,25.10
2018-01-12T08:13:47.679Z,29.60
2018-01-12T08:16:15.137Z,39.10
2018-01-12T08:18:42.601Z,25.33
2018-01-12T08:21:10.049Z,27.97
2018-01-12T08:23:37.543Z,30.80
2018-01-12T08:26:05.020Z,37.10
2018-01-12T08:28:32.479Z,27.43
2018-01-12T08:30:59.940Z,30.63
2018-01-12T08:33:27.397Z,32.03
2018-01-12T08:35:54.870Z,25.70
2018-01-12T08:38:22.335Z,25.03
2018-01-12T08:40:49.784Z,20.67
2018-01-12T08:43:17.250Z,22.90
2018-01-12T08:45:44.701Z,24.53
2018-01-12T08:48:12.170Z,24.00
2018-01-12T08:50:39.615Z,31.47
2018-01-12T08:53:07.123Z,23.47
2018-01-12T08:55:34.589Z,24.30
2018-01-12T08:58:02.060Z,25.90
2018-01-12T09:00:29.515Z,22.20
2018-01-12T09:02:56.974Z,28.90
2018-01-12T09:05:24.416Z,27.77
2018-01-12T09:07:51.887Z,26.43
2018-01-12T09:10:19.346Z,37.00
2018-01-12T09:12:46.798Z,56.97
2018-01-12T09:15:22.159Z,37.33
2018-01-12T09:17:49.606Z,22.43
2018-01-12T09:20:18.038Z,26.10
2018-01-12T09:22:48.327Z,26.57
2018-01-12T09:25:25.625Z,20.97
2018-01-12T09:27:53.105Z,22.77
2018-01-12T09:30:20.561Z,27.07
2018-01-12T09:32:49.849Z,30.37
2018-01-12T09:35:17.318Z,24.20
2018-01-12T09:37:44.791Z,22.40
2018-01-12T09:40:27.833Z,32.37
2018-01-12T09:42:55.298Z,26.03
2018-01-12T09:45:22.788Z,30.33
2018-01-12T09:48:14.035Z,22.87
2018-01-12T09:50:41.514Z,29.50
2018-01-12T09:53:08.958Z,29.33
2018-01-12T09:55:36.453Z,21.17
2018-01-12T09:58:03.902Z,45.90
2018-01-12T10:00:40.369Z,32.60
2018-01-12T10:03:07.818Z,31.70
2018-01-12T10:05:35.290Z,29.70
2018-01-12T10:08:05.561Z,49.07
2018-01-12T10:10:33.061Z,39.03
2018-01-12T10:13:00.522Z,38.37
2018-01-12T10:15:27.968Z,43.97
2018-01-12T10:17:56.257Z,38.10
2018-01-12T10:20:36.271Z,32.93
2018-01-12T10:23:03.751Z,89.70
2018-01-12T10:25:31.200Z,42.73
2018-01-12T10:27:58.658Z,33.40
2018-01-12T10:30:58.206Z,30.57
2018-01-12T10:33:43.274Z,28.80
2018-01-12T10:39:22.230Z,27.87
2018-01-12T10:42:01.636Z,30.97
2018-01-12T10:44:29.095Z,26.43
2018-01-12T10:47:29.793Z,25.43
2018-01-12T10:52:57.106Z,39.87
2018-01-12T10:55:24.572Z,28.27
2018-01-12T10:57:52.047Z,32.77
2018-01-12T11:00:33.063Z,31.37
2018-01-12T11:03:00.526Z,31.23
2018-01-12T11:05:27.983Z,23.83
2018-01-12T11:07:55.454Z,28.60
2018-01-12T11:10:22.904Z,24.00
2018-01-12T11:12:50.375Z,20.50
2018-01-12T11:15:17.842Z,28.60
2018-01-12T11:17:45.290Z,24.60
2018-01-12T11:20:12.761Z,26.97
2018-01-12T11:22:40.230Z,29.80
2018-01-12T11:25:07.690Z,36.03
2018-01-12T11:27:35.156Z,28.40
2018-01-12T11:30:02.606Z,28.00
2018-01-12T11:32:30.069Z,28.80
2018-01-12T11:34:57.518Z,31.17
2018-01-12T11:37:24.978Z,28.33
2018-01-12T11:39:52.424Z,32.57
2018-01-12T11:42:19.883Z,27.90
2018-01-12T11:44:47.343Z,32.93
2018-01-12T11:47:14.808Z,24.83
2018-01-12T11:49:42.279Z,25.73
2018-01-12T11:52:09.774Z,31.43
2018-01-12T11:54:37.256Z,26.10
2018-01-12T11:57:04.759Z,34.57
2018-01-12T11:59:32.230Z,27.03
2018-01-12T12:01:59.686Z,34.23
2018-01-12T12:04:27.149Z,34.90
2018-01-12T12:06:54.593Z,30.10
2018-01-12T12:09:22.063Z,35.37
2018-01-12T12:11:49.518Z,30.80
2018-01-12T12:14:16.997Z,30.37
2018-01-12T12:16:44.454Z,24.83
2018-01-12T12:19:11.932Z,24.00
2018-01-12T12:21:39.396Z,28.23
2018-01-12T12:24:06.863Z,27.27
2018-01-12T12:26:34.327Z,31.23
2018-01-12T12:29:01.775Z,20.53
2018-01-12T12:31:29.253Z,24.10
2018-01-12T12:33:56.706Z,29.87
2018-01-12T12:36:24.184Z,24.00
2018-01-12T12:38:51.640Z,32.57
2018-01-12T12:41:19.102Z,29.20
2018-01-12T12:43:46.551Z,30.77
2018-01-12T12:46:14.020Z,32.80
2018-01-12T12:48:41.481Z,30.80
2018-01-12T12:51:08.955Z,38.73
2018-01-12T12:53:36.443Z,30.43
2018-01-12T12:56:03.891Z,29.93
2018-01-12T12:58:31.363Z,36.77
2018-01-12T13:00:58.822Z,31.80
2018-01-12T13:03:26.306Z,24.30
2018-01-12T13:05:53.772Z,29.63
2018-01-12T13:08:21.228Z,35.10
2018-01-12T13:10:48.697Z,31.60
2018-01-12T13:13:16.189Z,37.40
2018-01-12T13:15:43.651Z,38.83
2018-01-12T13:18:11.107Z,44.37
2018-01-12T13:20:38.567Z,40.27
2018-01-12T13:23:06.026Z,32.60
2018-01-12T13:25:33.487Z,31.30
2018-01-12T13:28:00.971Z,33.90
2018-01-12T13:30:28.434Z,30.60
2018-01-12T13:32:55.898Z,28.87
2018-01-12T13:35:23.349Z,31.87
2018-01-12T13:37:50.811Z,25.63
2018-01-12T13:40:18.278Z,23.10
2018-01-12T13:42:45.773Z,26.70
2018-01-12T13:45:13.283Z,26.33
2018-01-12T13:47:40.735Z,26.60
2018-01-12T13:50:08.203Z,25.80
2018-01-12T13:52:35.652Z,27.90
2018-01-12T13:55:03.119Z,28.93
2018-01-12T13:57:30.602Z,28.80
2018-01-12T13:59:58.068Z,31.23
2018-01-12T14:02:25.543Z,30.77
2018-01-12T14:04:53.003Z,33.80
2018-01-12T14:07:20.476Z,37.03
2018-01-12T14:09:47.931Z,27.73
2018-01-12T14:12:15.394Z,29.67
2018-01-12T14:14:42.855Z,31.10
2018-01-12T14:17:10.315Z,30.77
2018-01-12T14:19:37.787Z,32.53
2018-01-12T14:22:05.246Z,37.17
2018-01-12T14:24:32.710Z,29.70
2018-01-12T14:27:00.173Z,29.70
2018-01-12T14:29:27.647Z,38.97
2018-01-12T14:31:55.115Z,27.50
2018-01-12T14:34:22.567Z,32.77
2018-01-12T14:36:50.039Z,33.23
2018-01-12T14:39:17.502Z,37.60
2018-01-12T14:41:44.974Z,31.70
2018-01-12T14:44:12.455Z,29.03
2018-01-12T14:46:39.941Z,33.00
2018-01-12T14:49:07.417Z,31.87
2018-01-12T14:51:34.866Z,38.60
2018-01-12T14:54:02.336Z,28.13
2018-01-12T14:56:29.807Z,31.17
2018-01-12T14:58:57.289Z,34.93
2018-01-12T15:01:24.780Z,31.70
2018-01-12T15:03:52.243Z,30.03
2018-01-12T15:06:19.716Z,29.77
2018-01-12T15:08:47.165Z,31.23
2018-01-12T15:11:14.640Z,36.50
2018-01-12T15:13:42.090Z,32.73
2018-01-12T15:16:09.555Z,33.93
2018-01-12T15:18:37.016Z,30.10
2018-01-12T15:21:04.479Z,27.20
2018-01-12T15:23:31.936Z,33.93
2018-01-12T15:25:59.398Z,36.33
2018-01-12T15:28:26.854Z,34.40
2018-01-12T15:30:54.359Z,28.13
2018-01-12T15:33:21.824Z,36.70
2018-01-12T15:35:49.289Z,35.60
2018-01-12T15:38:16.762Z,31.87
2018-01-12T15:40:44.220Z,37.73
2018-01-12T15:43:11.698Z,32.30
2018-01-12T15:45:39.151Z,36.83
2018-01-12T15:48:06.612Z,41.63
2018-01-12T15:50:34.067Z,36.20
2018-01-12T15:53:01.535Z,34.40
2018-01-12T15:55:28.990Z,32.83
2018-01-12T15:57:56.465Z,32.33
2018-01-12T16:00:23.920Z,41.03
2018-01-12T16:02:51.382Z,45.90
2018-01-12T16:05:18.852Z,36.20
2018-01-12T16:07:46.371Z,38.60
2018-01-12T16:10:13.816Z,53.50
2018-01-12T16:12:41.282Z,53.90
2018-01-12T16:15:08.775Z,50.97
2018-01-12T16:17:36.220Z,49.83
2018-01-12T16:20:03.696Z,45.90
2018-01-12T16:22:31.164Z,41.00
2018-01-12T16:24:58.653Z,50.10
2018-01-12T16:27:26.221Z,46.63
2018-01-12T16:29:53.709Z,36.17
2018-01-12T16:32:21.187Z,45.57
2018-01-12T16:34:48.639Z,43.20
2018-01-12T16:37:16.122Z,44.20
2018-01-12T16:39:43.640Z,42.77
2018-01-12T16:42:11.111Z,40.87
2018-01-12T16:44:38.594Z,39.00
2018-01-12T16:47:06.055Z,42.60
2018-01-12T16:49:33.514Z,51.73
2018-01-12T16:52:00.962Z,46.53
2018-01-12T16:54:28.461Z,43.87
2018-01-12T16:56:55.917Z,45.10
2018-01-12T16:59:23.375Z,36.23
2018-01-12T17:01:50.860Z,39.80
2018-01-12T17:04:18.311Z,46.20
2018-01-12T17:06:45.802Z,51.20
2018-01-12T17:09:13.260Z,53.07
2018-01-12T17:11:40.733Z,43.10
2018-01-12T17:14:08.195Z,35.00
2018-01-12T17:16:35.750Z,46.27
2018-01-12T17:19:03.216Z,41.20
2018-01-12T17:21:30.665Z,41.37
2018-01-12T17:23:58.150Z,38.53
2018-01-12T17:26:25.620Z,44.67
2018-01-12T17:28:53.183Z,42.40
2018-01-12T17:31:20.676Z,43.93
2018-01-12T17:33:48.160Z,45.10
2018-01-12T17:36:15.660Z,41.70
2018-01-12T17:38:43.138Z,38.10
2018-01-12T17:41:10.591Z,43.83
2018-01-12T17:43:38.054Z,36.50
2018-01-12T17:46:05.501Z,45.87
2018-01-12T17:48:32.992Z,45.07
2018-01-12T17:51:00.436Z,45.53
2018-01-12T17:53:27.908Z,52.97
2018-01-12T17:55:55.370Z,45.00
2018-01-12T17:58:22.835Z,63.13
2018-01-12T18:00:50.295Z,40.73
2018-01-12T18:03:17.815Z,36.00
2018-01-12T18:05:45.227Z,43.13
2018-01-12T18:08:12.704Z,36.90
2018-01-12T18:10:40.164Z,46.50
2018-01-12T18:13:07.642Z,40.70
2018-01-12T18:15:35.121Z,45.33
2018-01-12T18:18:02.574Z,42.90
2018-01-12T18:20:30.051Z,37.80
2018-01-12T18:22:57.515Z,41.07
2018-01-12T18:25:24.967Z,38.03
2018-01-12T18:27:52.431Z,40.47
2018-01-12T18:30:19.881Z,43.40
2018-01-12T18:32:47.370Z,44.73
2018-01-12T18:35:14.834Z,39.57
2018-01-12T18:37:42.298Z,40.37
2018-01-12T18:40:09.754Z,39.37
2018-01-12T18:42:37.200Z,41.13
2018-01-12T18:45:04.967Z,43.00
2018-01-12T18:47:32.465Z,36.00
2018-01-12T18:49:59.915Z,43.27
2018-01-12T18:52:27.382Z,40.67
2018-01-12T18:54:54.850Z,37.33
2018-01-12T18:57:22.314Z,53.73
2018-01-12T18:59:49.784Z,43.30
2018-01-12T19:02:17.239Z,42.77
2018-01-12T19:04:44.731Z,41.70
2018-01-12T19:07:16.875Z,40.70
2018-01-12T19:09:44.342Z,43.20
2018-01-12T19:12:11.798Z,40.53
2018-01-12T19:14:39.271Z,37.70
2018-01-12T19:17:06.738Z,43.77
2018-01-12T19:19:34.199Z,48.33
2018-01-12T19:22:01.668Z,43.93
2018-01-12T19:24:29.124Z,38.87
2018-01-12T19:26:56.605Z,39.43
2018-01-12T19:29:24.071Z,38.00
2018-01-12T19:31:51.538Z,38.93
2018-01-12T19:34:19.015Z,30.07
2018-01-12T19:36:46.474Z,34.53
2018-01-12T19:39:13.951Z,38.07
2018-01-12T19:41:41.407Z,36.03
2018-01-12T19:44:08.895Z,41.40
2018-01-12T19:46:36.354Z,42.27
2018-01-12T19:49:03.811Z,41.87
2018-01-12T19:51:31.281Z,40.70
2018-01-12T19:53:58.743Z,35.97
2018-01-12T19:56:26.206Z,42.77
2018-01-12T19:58:53.679Z,42.53
2018-01-12T20:01:21.139Z,43.30
2018-01-12T20:03:48.660Z,48.77
2018-01-12T20:06:16.106Z,45.27
2018-01-12T20:08:43.632Z,42.10
2018-01-12T20:11:11.086Z,41.90
2018-01-12T20:13:38.546Z,41.20
2018-01-12T20:16:06.011Z,44.03
2018-01-12T20:18:33.471Z,42.23
2018-01-12T20:21:00.948Z,39.13
2018-01-12T20:23:28.442Z,35.80
2018-01-12T20:25:55.892Z,35.93
2018-01-12T20:28:23.366Z,34.57
2018-01-12T20:30:50.839Z,41.67
2018-01-12T20:33:18.349Z,37.97
2018-01-12T20:35:45.777Z,40.73
2018-01-12T20:38:13.231Z,39.17
2018-01-12T20:40:40.690Z,40.20
2018-01-12T20:43:08.157Z,39.10
2018-01-12T20:45:35.615Z,38.33
2018-01-12T20:48:03.098Z,44.47
2018-01-12T20:50:30.559Z,38.37
2018-01-12T20:52:58.047Z,33.00
2018-01-12T20:55:25.590Z,28.47
2018-01-12T20:57:53.058Z,34.73
2018-01-12T21:00:20.507Z,35.60
2018-01-12T21:02:47.977Z,43.57
2018-01-12T21:05:15.449Z,38.83
2018-01-12T21:07:42.916Z,37.73
2018-01-12T21:10:10.389Z,32.00
2018-01-12T21:12:37.839Z,31.23
2018-01-12T21:15:05.308Z,36.40
2018-01-12T21:17:32.760Z,42.27
2018-01-12T21:20:00.237Z,39.57
2018-01-12T21:22:27.692Z,39.73
2018-01-12T21:24:55.162Z,38.80
2018-01-12T21:27:22.631Z,35.97
2018-01-12T21:29:50.092Z,36.60
2018-01-12T21:32:17.542Z,39.73
2018-01-12T21:34:45.026Z,47.17
2018-01-12T21:37:12.479Z,40.10
2018-01-12T21:39:39.972Z,44.03
2018-01-12T21:42:07.426Z,41.83
2018-01-12T21:44:34.897Z,38.40
2018-01-12T21:47:02.359Z,32.70
2018-01-12T21:49:30.577Z,40.47
2018-01-12T21:51:58.032Z,37.80
2018-01-12T21:54:25.517Z,35.07
2018-01-12T21:56:52.995Z,40.10
2018-01-12T21:59:20.444Z,36.80
2018-01-12T22:01:47.917Z,37.77
2018-01-12T22:04:15.390Z,40.40
2018-01-12T22:06:42.854Z,40.33
2018-01-12T22:09:10.303Z,40.00
2018-01-12T22:11:37.763Z,45.63
2018-01-12T22:14:05.218Z,40.33
2018-01-12T22:16:32.684Z,46.10
2018-01-12T22:19:00.150Z,38.70
2018-01-12T22:21:27.612Z,45.17
2018-01-12T22:23:55.074Z,36.57
2018-01-12T22:26:22.527Z,42.30
2018-01-12T22:28:49.989Z,41.70
2018-01-12T22:31:17.447Z,46.37
2018-01-12T22:33:44.924Z,40.50
2018-01-12T22:36:12.395Z,41.00
2018-01-12T22:38:39.855Z,39.97
2018-01-12T22:41:07.353Z,36.07
2018-01-12T22:43:34.802Z,40.37
2018-01-12T22:46:02.265Z,35.53
2018-01-12T22:48:29.734Z,43.57
2018-01-12T22:50:57.190Z,41.03
2018-01-12T22:53:24.740Z,46.53
2018-01-12T22:55:52.212Z,43.63
2018-01-12T22:58:19.704Z,42.37
2018-01-12T23:00:47.172Z,43.10
2018-01-12T23:03:14.654Z,40.97
2018-01-12T23:05:42.110Z,45.77
2018-01-12T23:08:09.576Z,44.00
2018-01-12T23:10:37.026Z,47.13
2018-01-12T23:13:04.496Z,45.20
2018-01-12T23:15:31.956Z,36.43
2018-01-12T23:17:59.419Z,48.67
2018-01-12T23:20:26.908Z,41.27
2018-01-12T23:22:54.377Z,47.37
2018-01-12T23:25:21.839Z,42.67
2018-01-12T23:27:49.316Z,49.30
2018-01-12T23:30:16.763Z,38.90
2018-01-12T23:32:44.210Z,36.03
2018-01-12T23:35:11.682Z,34.67
2018-01-12T23:37:39.158Z,47.40
2018-01-12T23:40:06.637Z,43.17
2018-01-12T23:42:34.090Z,38.70
2018-01-12T23:45:01.556Z,47.07
2018-01-12T23:47:29.026Z,42.93
2018-01-12T23:49:56.487Z,53.00
2018-01-12T23:52:23.967Z,40.00
2018-01-12T23:54:51.445Z,42.77
2018-01-12T23:57:18.921Z,33.77
2018-01-12T23:59:46.378Z,44.93
